Time;durP1;ratioP1;P1;durP2;ratioP2;P2;SDS_P1;SDS_P2;PMS_P1;PMS_P2;Temp;Humidity;BMP_temperature;BMP_pressure;BME280_temperature;BME280_humidity;BME280_pressure;Samples;Min_cycle;Max_cycle;Signal;HPM_P1;HPM_P2
2023/09/06 00:02:22;;;;;;;4.53;1.33;;;;;15.80;96452.00;;;;5137441;27;20661;-61
2023/09/06 00:04:51;;;;;;;1.10;1.10;;;;;15.70;96448.00;;;;5137139;27;20217;-61
2023/09/06 00:07:19;;;;;;;0.83;0.83;;;;;15.70;96455.00;;;;5136581;27;20209;-61
2023/09/06 00:09:46;;;;;;;1.40;1.30;;;;;15.60;96447.00;;;;5136847;27;20204;-61
2023/09/06 00:12:13;;;;;;;0.90;0.90;;;;;15.50;96444.00;;;;5136802;27;20194;-61
2023/09/06 00:14:41;;;;;;;1.00;1.00;;;;;15.40;96438.00;;;;5136539;27;20653;-61
2023/09/06 00:17:09;;;;;;;1.17;1.10;;;;;15.50;96433.00;;;;5136478;27;20692;-61
2023/09/06 00:19:36;;;;;;;0.60;0.60;;;;;15.40;96442.00;;;;5135108;27;20257;-61
2023/09/06 00:22:05;;;;;;;0.80;0.80;;;;;15.40;96446.00;;;;5135049;27;20208;-61
2023/09/06 00:24:32;;;;;;;0.90;0.90;;;;;15.40;96441.00;;;;5135221;27;20214;-61
2023/09/06 00:27:03;;;;;;;1.03;1.03;;;;;15.40;96441.00;;;;5136526;27;20234;-61
2023/09/06 00:29:32;;;;;;;1.90;1.50;;;;;15.40;96438.00;;;;5136751;27;20178;-61
2023/09/06 00:31:59;;;;;;;1.23;1.23;;;;;15.30;96443.00;;;;5136219;27;20240;-62
2023/09/06 00:34:27;;;;;;;0.97;0.97;;;;;15.30;96442.00;;;;5136239;27;20181;-62
2023/09/06 00:36:55;;;;;;;0.63;0.63;;;;;15.30;96439.00;;;;5136468;27;20734;-61
2023/09/06 00:39:28;;;;;;;0.70;0.70;;;;;15.30;96434.00;;;;5136529;27;20254;-62
2023/09/06 00:41:55;;;;;;;1.10;1.10;;;;;15.20;96434.00;;;;5136479;27;20279;-61
2023/09/06 00:44:22;;;;;;;0.97;0.97;;;;;15.20;96430.00;;;;5136073;27;20327;-61
2023/09/06 00:46:50;;;;;;;8.50;2.07;;;;;15.10;96431.00;;;;5136274;27;20299;-62
2023/09/06 00:49:17;;;;;;;0.73;0.73;;;;;15.00;96432.00;;;;5135912;27;20193;-61
2023/09/06 00:51:45;;;;;;;0.57;0.57;;;;;15.10;96431.00;;;;5134858;27;20543;-61
2023/09/06 00:54:12;;;;;;;4.10;1.80;;;;;15.00;96438.00;;;;5135911;27;20219;-61
2023/09/06 00:56:41;;;;;;;1.47;1.20;;;;;15.00;96427.00;;;;5135808;27;20205;-62
2023/09/06 00:59:11;;;;;;;1.73;0.93;;;;;14.80;96437.00;;;;5136215;27;20193;-62
2023/09/06 01:01:39;;;;;;;1.30;1.27;;;;;14.70;96433.00;;;;5136094;27;20181;-62
2023/09/06 01:04:06;;;;;;;0.90;0.90;;;;;14.70;96433.00;;;;5135706;27;20227;-62
2023/09/06 01:06:38;;;;;;;2.27;2.00;;;;;15.00;96443.00;;;;5135566;27;20223;-62
2023/09/06 01:09:06;;;;;;;1.10;1.10;;;;;15.00;96442.00;;;;5136023;27;20193;-62
2023/09/06 01:11:37;;;;;;;0.93;0.93;;;;;14.90;96431.00;;;;5135435;27;20193;-62
2023/09/06 01:14:05;;;;;;;1.50;1.50;;;;;14.80;96439.00;;;;5135941;27;20181;-62
2023/09/06 01:16:37;;;;;;;1.53;1.47;;;;;14.60;96428.00;;;;5135652;27;20243;-62
2023/09/06 01:19:05;;;;;;;1.70;1.47;;;;;14.70;96432.00;;;;5135613;27;20189;-61
2023/09/06 01:21:37;;;;;;;0.73;0.73;;;;;14.70;96428.00;;;;5135216;27;20598;-62
2023/09/06 01:24:07;;;;;;;0.93;0.93;;;;;14.50;96423.00;;;;5135511;27;20198;-62
2023/09/06 01:26:35;;;;;;;0.93;0.93;;;;;14.50;96419.00;;;;5135103;27;20579;-61
2023/09/06 01:29:02;;;;;;;1.90;1.80;;;;;14.50;96414.00;;;;5135139;27;20569;-61
2023/09/06 01:31:30;;;;;;;1.00;1.00;;;;;14.50;96411.00;;;;5135200;27;20185;-61
2023/09/06 01:33:57;;;;;;;1.37;1.37;;;;;14.50;96421.00;;;;5135332;27;20540;-62
2023/09/06 01:36:25;;;;;;;1.33;1.23;;;;;14.40;96415.00;;;;5135231;27;20577;-62
2023/09/06 01:38:52;;;;;;;1.27;1.23;;;;;14.30;96404.00;;;;5133846;27;20193;-62
2023/09/06 01:41:21;;;;;;;1.10;1.10;;;;;14.20;96406.00;;;;5135002;27;20204;-62
2023/09/06 01:43:53;;;;;;;1.70;1.37;;;;;14.10;96399.00;;;;5134980;27;20217;-62
2023/09/06 01:46:22;;;;;;;1.17;1.17;;;;;14.10;96402.00;;;;5134749;27;20289;-62
2023/09/06 01:48:50;;;;;;;1.23;1.10;;;;;14.10;96408.00;;;;5134790;27;20243;-62
2023/09/06 01:51:17;;;;;;;1.20;1.10;;;;;14.20;96408.00;;;;5134855;27;20189;-62
2023/09/06 01:53:45;;;;;;;1.60;1.50;;;;;14.10;96409.00;;;;5135199;27;20189;-61
2023/09/06 01:56:13;;;;;;;1.13;1.13;;;;;14.20;96408.00;;;;5134655;27;20283;-61
2023/09/06 01:58:42;;;;;;;1.73;1.63;;;;;14.20;96413.00;;;;5134546;27;20185;-61
2023/09/06 02:01:10;;;;;;;1.07;1.07;;;;;14.10;96412.00;;;;5134525;27;20193;-62
2023/09/06 02:03:37;;;;;;;0.90;0.90;;;;;14.10;96410.00;;;;5132933;27;20221;-62
2023/09/06 02:06:05;;;;;;;0.80;0.80;;;;;14.20;96409.00;;;;5134311;27;20217;-62
2023/09/06 02:08:35;;;;;;;1.10;1.10;;;;;14.10;96413.00;;;;5134327;27;20197;-62
2023/09/06 02:11:02;;;;;;;0.80;0.80;;;;;14.00;96411.00;;;;5134651;27;20578;-62
2023/09/06 02:13:29;;;;;;;12.40;1.47;;;;;14.00;96402.00;;;;5134230;27;20186;-62
2023/09/06 02:15:58;;;;;;;1.27;1.23;;;;;13.80;96409.00;;;;5134670;27;20196;-62
2023/09/06 02:18:26;;;;;;;1.60;1.50;;;;;13.70;96405.00;;;;5134244;27;20189;-62
2023/09/06 02:20:56;;;;;;;0.70;0.70;;;;;13.70;96405.00;;;;5134308;27;20220;-62
2023/09/06 02:23:26;;;;;;;8.73;2.23;;;;;13.80;96406.00;;;;5134193;27;20299;-62
2023/09/06 02:25:53;;;;;;;1.23;1.23;;;;;13.80;96399.00;;;;5134580;27;20221;-62
2023/09/06 02:28:21;;;;;;;1.37;1.37;;;;;13.60;96401.00;;;;5134442;27;20185;-62
2023/09/06 02:30:48;;;;;;;1.47;1.37;;;;;13.60;96403.00;;;;5134103;27;20537;-62
2023/09/06 02:33:17;;;;;;;1.00;1.00;;;;;13.70;96409.00;;;;5134334;27;20541;-62
2023/09/06 02:35:45;;;;;;;1.90;1.40;;;;;13.60;96409.00;;;;5134137;27;20763;-62
2023/09/06 02:40:50;;;;;;;1.00;1.00;;;;;13.50;96408.00;;;;5650855;22;20264;-62
2023/09/06 02:43:17;;;;;;;0.87;0.87;;;;;13.50;96394.00;;;;5032049;28;20223;-62
2023/09/06 02:45:49;;;;;;;1.40;1.40;;;;;13.50;96397.00;;;;5033143;28;20223;-61
2023/09/06 02:48:18;;;;;;;1.40;1.40;;;;;13.40;96394.00;;;;5047531;28;20254;-61
2023/09/06 02:50:46;;;;;;;1.17;1.17;;;;;13.40;96382.00;;;;5041151;28;20220;-61
2023/09/06 02:53:19;;;;;;;0.90;0.90;;;;;13.40;96403.00;;;;5022430;28;20209;-61
2023/09/06 02:55:48;;;;;;;1.73;1.23;;;;;13.40;96398.00;;;;5001756;28;20662;-61
2023/09/06 02:58:16;;;;;;;1.07;1.07;;;;;13.30;96406.00;;;;4966839;28;20647;-61
2023/09/06 03:00:47;;;;;;;2.07;1.87;;;;;13.20;96409.00;;;;4814486;29;20636;-62
2023/09/06 03:03:16;;;;;;;1.67;1.57;;;;;13.20;96409.00;;;;4738969;29;1082457;-62
2023/09/06 03:05:44;;;;;;;0.83;0.83;;;;;13.30;96405.00;;;;4738234;30;20702;-61
2023/09/06 03:08:13;;;;;;;1.13;1.13;;;;;13.10;96404.00;;;;4734648;30;20226;-61
2023/09/06 03:10:41;;;;;;;1.03;0.87;;;;;13.20;96406.00;;;;4734471;30;20220;-61
2023/09/06 03:13:09;;;;;;;1.50;1.37;;;;;13.40;96402.00;;;;4762789;30;20224;-61
2023/09/06 03:15:37;;;;;;;1.10;1.10;;;;;13.40;96400.00;;;;4737516;30;20276;-62
2023/09/06 03:18:05;;;;;;;0.80;0.80;;;;;13.20;96407.00;;;;4738037;30;20675;-62
2023/09/06 03:20:33;;;;;;;1.07;1.07;;;;;13.10;96402.00;;;;4737976;30;20259;-62
2023/09/06 03:23:12;;;;;;;0.90;0.90;;;;;13.00;96403.00;;;;4737945;30;20200;-60
2023/09/06 03:25:40;;;;;;;4.83;2.23;;;;;13.00;96414.00;;;;4737972;30;20212;-60
2023/09/06 03:28:08;;;;;;;1.23;1.23;;;;;12.90;96407.00;;;;4737765;30;20216;-61
2023/09/06 03:30:35;;;;;;;0.70;0.70;;;;;12.70;96403.00;;;;4737754;30;20224;-60
2023/09/06 03:33:05;;;;;;;1.47;1.37;;;;;12.80;96404.00;;;;4738397;30;20210;-61
2023/09/06 03:35:32;;;;;;;1.10;1.10;;;;;12.80;96404.00;;;;4766006;30;20211;-61
2023/09/06 03:38:01;;;;;;;1.07;1.03;;;;;12.80;96403.00;;;;4737727;30;20618;-61
2023/09/06 03:40:35;;;;;;;0.70;0.70;;;;;12.80;96396.00;;;;4737574;30;20227;-60
2023/09/06 03:43:14;;;;;;;0.90;0.90;;;;;12.90;96396.00;;;;4737604;30;20208;-60
2023/09/06 03:45:44;;;;;;;2.67;2.40;;;;;12.90;96399.00;;;;4737823;30;20671;-61
2023/09/06 03:48:12;;;;;;;1.20;1.20;;;;;12.90;96401.00;;;;4737653;30;20261;-61
2023/09/06 03:50:40;;;;;;;0.93;0.93;;;;;12.90;96401.00;;;;4738748;30;20223;-60
2023/09/06 03:53:08;;;;;;;0.90;0.90;;;;;12.90;96400.00;;;;4737661;30;20573;-60
2023/09/06 03:55:37;;;;;;;1.50;1.40;;;;;12.90;96403.00;;;;4737402;30;20203;-60
2023/09/06 03:58:07;;;;;;;1.47;1.37;;;;;12.90;96408.00;;;;4737275;30;20618;-60
2023/09/06 04:00:34;;;;;;;1.30;1.30;;;;;12.90;96406.00;;;;4758974;29;20274;-60
2023/09/06 04:03:03;;;;;;;1.17;1.13;;;;;12.70;96406.00;;;;4870915;29;20623;-61
2023/09/06 04:05:32;;;;;;;0.87;0.87;;;;;12.50;96408.00;;;;4868519;29;20225;-61
2023/09/06 04:08:03;;;;;;;1.03;1.03;;;;;12.60;96399.00;;;;4877619;29;20202;-61
2023/09/06 04:10:36;;;;;;;1.23;1.23;;;;;12.60;96403.00;;;;4863436;29;20702;-61
2023/09/06 04:13:04;;;;;;;1.20;1.10;;;;;12.50;96405.00;;;;4863535;29;20191;-61
2023/09/06 04:15:34;;;;;;;5.90;2.23;;;;;12.50;96411.00;;;;4863602;29;20196;-61
2023/09/06 04:18:03;;;;;;;0.80;0.80;;;;;12.50;96410.00;;;;4863527;29;20205;-61
2023/09/06 04:20:32;;;;;;;1.17;1.17;;;;;12.50;96409.00;;;;4862997;29;20701;-61
2023/09/06 04:23:00;;;;;;;1.40;1.40;;;;;12.60;96408.00;;;;4863084;29;20203;-61
2023/09/06 04:25:28;;;;;;;0.93;0.93;;;;;12.80;96415.00;;;;4863396;29;20227;-62
2023/09/06 04:27:57;;;;;;;1.33;1.13;;;;;12.90;96418.00;;;;4863144;29;20195;-61
2023/09/06 04:30:28;;;;;;;1.40;1.33;;;;;12.90;96404.00;;;;4862885;29;20215;-62
2023/09/06 04:32:57;;;;;;;1.87;1.77;;;;;12.90;96414.00;;;;4861700;29;20191;-62
2023/09/06 04:35:32;;;;;;;0.90;0.90;;;;;13.00;96407.00;;;;4862869;29;20247;-61
2023/09/06 04:38:02;;;;;;;1.20;1.20;;;;;13.10;96410.00;;;;4863268;29;20191;-61
2023/09/06 04:40:29;;;;;;;1.17;1.13;;;;;13.20;96409.00;;;;4863122;29;20702;-61
2023/09/06 04:42:58;;;;;;;1.30;1.30;;;;;13.10;96415.00;;;;4862798;29;20648;-61
2023/09/06 04:45:26;;;;;;;2.17;1.97;;;;;13.10;96412.00;;;;4862822;29;20616;-61
2023/09/06 04:47:53;;;;;;;1.10;1.10;;;;;13.00;96412.00;;;;4862914;29;20210;-61
2023/09/06 04:50:21;;;;;;;1.00;1.00;;;;;12.90;96415.00;;;;4862795;29;20721;-61
2023/09/06 04:52:50;;;;;;;2.47;2.00;;;;;12.90;96413.00;;;;4862703;29;20206;-61
2023/09/06 04:55:19;;;;;;;2.23;2.13;;;;;12.90;96414.00;;;;4862864;29;20666;-61
2023/09/06 04:57:49;;;;;;;1.17;1.17;;;;;12.90;96411.00;;;;4862467;29;20247;-61
2023/09/06 05:00:23;;;;;;;1.50;1.40;;;;;12.90;96415.00;;;;4911705;29;20698;-61
2023/09/06 05:02:52;;;;;;;2.47;2.27;;;;;12.90;96428.00;;;;4937511;29;20204;-61
2023/09/06 05:05:21;;;;;;;1.13;1.13;;;;;12.90;96425.00;;;;4937476;29;20216;-61
2023/09/06 05:07:48;;;;;;;1.13;1.13;;;;;13.00;96419.00;;;;4937389;29;20196;-61
2023/09/06 05:10:16;;;;;;;1.93;1.80;;;;;13.00;96422.00;;;;4937434;29;20576;-61
2023/09/06 05:12:43;;;;;;;1.63;1.53;;;;;12.80;96422.00;;;;4937246;29;20556;-61
2023/09/06 05:15:12;;;;;;;1.10;1.10;;;;;12.60;96432.00;;;;4937346;29;20192;-61
2023/09/06 05:17:41;;;;;;;1.10;1.10;;;;;12.70;96427.00;;;;4937234;29;20192;-61
2023/09/06 05:20:26;;;;;;;1.20;1.20;;;;;12.50;96430.00;;;;4920043;29;20220;-61
2023/09/06 05:22:54;;;;;;;1.13;1.13;;;;;12.50;96424.00;;;;4937549;29;20200;-61
2023/09/06 05:25:21;;;;;;;1.10;1.10;;;;;12.50;96425.00;;;;4937132;29;20223;-62
2023/09/06 05:27:49;;;;;;;1.37;1.27;;;;;12.60;96425.00;;;;4937049;29;20204;-61
2023/09/06 05:30:16;;;;;;;1.57;1.47;;;;;12.60;96426.00;;;;4937265;29;20208;-61
2023/09/06 05:32:45;;;;;;;1.87;1.77;;;;;12.70;96424.00;;;;4937106;29;20196;-61
2023/09/06 05:35:13;;;;;;;1.70;1.60;;;;;12.70;96422.00;;;;4936997;29;20203;-61
2023/09/06 05:37:41;;;;;;;1.47;1.37;;;;;12.40;96433.00;;;;4936410;29;20204;-61
2023/09/06 05:40:12;;;;;;;1.27;1.27;;;;;12.50;96434.00;;;;4931137;29;20673;-62
2023/09/06 05:42:40;;;;;;;1.27;1.17;;;;;12.60;96440.00;;;;4924896;29;20219;-64
2023/09/06 05:45:10;;;;;;;1.10;1.10;;;;;12.60;96441.00;;;;4916346;29;20229;-63
2023/09/06 05:47:38;;;;;;;1.70;1.60;;;;;12.60;96436.00;;;;4915853;29;20196;-63
2023/09/06 05:50:08;;;;;;;0.97;0.97;;;;;12.80;96428.00;;;;4926816;29;20230;-63
2023/09/06 05:52:36;;;;;;;1.57;1.47;;;;;12.80;96438.00;;;;4935078;29;20196;-63
2023/09/06 05:55:04;;;;;;;11.57;9.67;;;;;13.00;96436.00;;;;4925787;29;20211;-61
2023/09/06 05:57:32;;;;;;;14.57;10.60;;;;;13.20;96436.00;;;;4918618;29;20283;-61
2023/09/06 06:00:00;;;;;;;2.17;2.07;;;;;13.20;96441.00;;;;4949416;28;20790;-61
2023/09/06 06:02:27;;;;;;;0.73;0.73;;;;;13.20;96434.00;;;;4948776;29;20289;-61
2023/09/06 06:04:55;;;;;;;3.37;2.17;;;;;13.20;96437.00;;;;4934358;29;20560;-61
2023/09/06 06:07:24;;;;;;;1.07;1.07;;;;;13.10;96433.00;;;;4935136;29;20204;-60
2023/09/06 06:09:52;;;;;;;2.23;2.03;;;;;13.10;96432.00;;;;4934514;29;20200;-60
2023/09/06 06:12:22;;;;;;;1.87;1.77;;;;;13.20;96429.00;;;;4935518;29;20663;-60
2023/09/06 06:14:51;;;;;;;1.30;1.30;;;;;13.30;96424.00;;;;4949557;29;20251;-60
2023/09/06 06:17:19;;;;;;;1.20;1.20;;;;;13.30;96434.00;;;;4934572;29;20211;-60
2023/09/06 06:19:49;;;;;;;3.80;1.63;;;;;13.30;96432.00;;;;4934580;29;20204;-61
2023/09/06 06:22:16;;;;;;;1.57;1.47;;;;;13.40;96428.00;;;;4934956;29;21037;-60
2023/09/06 06:24:45;;;;;;;0.97;0.97;;;;;13.40;96434.00;;;;4934231;29;20263;-61
2023/09/06 06:27:13;;;;;;;0.80;0.80;;;;;13.60;96434.00;;;;4934216;29;20208;-60
2023/09/06 06:29:40;;;;;;;1.57;1.23;;;;;13.70;96432.00;;;;4934996;29;20204;-60
2023/09/06 06:32:08;;;;;;;1.47;1.40;;;;;13.70;96430.00;;;;4934039;29;20207;-60
2023/09/06 06:34:38;;;;;;;5.03;3.93;;;;;13.70;96435.00;;;;4934310;29;20310;-60
2023/09/06 06:37:06;;;;;;;13.87;12.53;;;;;14.00;96446.00;;;;4933351;29;20486;-60
2023/09/06 06:39:33;;;;;;;2.57;2.40;;;;;14.00;96441.00;;;;4934622;29;20577;-62
2023/09/06 06:42:02;;;;;;;0.87;0.87;;;;;14.20;96452.00;;;;4934571;29;20207;-62
2023/09/06 06:44:30;;;;;;;1.10;1.10;;;;;14.30;96454.00;;;;4934383;29;20206;-62
2023/09/06 06:46:57;;;;;;;5.20;2.40;;;;;14.40;96451.00;;;;4934203;29;20215;-62
2023/09/06 06:49:25;;;;;;;1.00;1.00;;;;;14.40;96459.00;;;;4933432;29;20200;-62
2023/09/06 06:51:52;;;;;;;1.73;1.63;;;;;14.50;96455.00;;;;4934195;29;20707;-61
2023/09/06 06:54:21;;;;;;;1.33;1.23;;;;;14.60;96453.00;;;;4934606;29;20208;-61
2023/09/06 06:56:48;;;;;;;0.70;0.70;;;;;14.70;96455.00;;;;4933238;29;20207;-62
2023/09/06 06:59:17;;;;;;;0.90;0.90;;;;;14.60;96450.00;;;;4955658;28;20714;-62
2023/09/06 07:01:45;;;;;;;1.50;1.40;;;;;14.90;96447.00;;;;4987234;28;20230;-62
2023/09/06 07:04:12;;;;;;;1.10;1.10;;;;;14.90;96444.00;;;;4974121;28;20198;-61
2023/09/06 07:06:39;;;;;;;1.23;1.23;;;;;15.00;96440.00;;;;4972853;28;20222;-62
2023/09/06 07:09:07;;;;;;;1.03;1.03;;;;;15.10;96444.00;;;;4972578;28;20210;-62
2023/09/06 07:11:35;;;;;;;1.30;1.20;;;;;15.30;96449.00;;;;4971665;28;20282;-62
2023/09/06 07:14:03;;;;;;;1.33;1.27;;;;;15.30;96442.00;;;;4972702;28;20574;-61
2023/09/06 07:16:33;;;;;;;1.53;1.43;;;;;15.40;96437.00;;;;4971825;28;20190;-61
2023/09/06 07:19:01;;;;;;;1.37;1.37;;;;;15.50;96446.00;;;;4972002;28;20274;-61
2023/09/06 07:21:28;;;;;;;2.17;1.37;;;;;15.70;96439.00;;;;4972146;28;20222;-61
2023/09/06 07:23:56;;;;;;;2.20;1.40;;;;;15.80;96446.00;;;;4972345;28;20566;-61
2023/09/06 07:26:23;;;;;;;1.63;1.53;;;;;15.90;96439.00;;;;4972109;28;20219;-61
2023/09/06 07:28:51;;;;;;;1.07;1.07;;;;;16.00;96443.00;;;;4972371;28;20269;-61
2023/09/06 07:31:18;;;;;;;1.03;1.03;;;;;16.10;96447.00;;;;4972261;28;20223;-61
2023/09/06 07:33:47;;;;;;;0.87;0.87;;;;;16.30;96444.00;;;;4972294;28;20199;-61
2023/09/06 07:36:14;;;;;;;1.10;1.10;;;;;16.30;96441.00;;;;4967926;28;20199;-61
2023/09/06 07:38:42;;;;;;;1.73;1.30;;;;;16.30;96445.00;;;;4971946;28;20203;-61
2023/09/06 07:41:11;;;;;;;1.73;1.63;;;;;16.40;96439.00;;;;4971798;28;20238;-61
2023/09/06 07:43:39;;;;;;;1.63;1.53;;;;;16.50;96452.00;;;;4971897;28;20701;-61
2023/09/06 07:46:09;;;;;;;1.87;1.77;;;;;16.70;96450.00;;;;4970669;28;20219;-61
2023/09/06 07:48:38;;;;;;;0.90;0.90;;;;;16.70;96454.00;;;;4971696;28;20195;-61
2023/09/06 07:51:07;;;;;;;0.80;0.80;;;;;16.90;96445.00;;;;4971785;28;20734;-61
2023/09/06 07:53:34;;;;;;;0.90;0.90;;;;;17.00;96452.00;;;;4971956;28;20203;-61
2023/09/06 07:56:02;;;;;;;0.93;0.93;;;;;17.10;96452.00;;;;4970942;28;20195;-61
2023/09/06 07:58:47;;;;;;;1.27;1.27;;;;;17.40;96445.00;;;;4971056;28;20286;-61
2023/09/06 08:01:14;;;;;;;1.13;1.03;;;;;17.60;96453.00;;;;4956920;28;20219;-62
2023/09/06 08:03:41;;;;;;;1.00;1.00;;;;;17.80;96456.00;;;;4994654;28;20213;-62
2023/09/06 08:06:10;;;;;;;1.37;1.27;;;;;18.00;96455.00;;;;4993694;28;20221;-62
2023/09/06 08:08:38;;;;;;;1.53;1.40;;;;;18.20;96451.00;;;;4993960;28;20560;-62
2023/09/06 08:11:05;;;;;;;0.97;0.97;;;;;18.30;96462.00;;;;4994028;28;20241;-62
2023/09/06 08:13:33;;;;;;;4.37;1.67;;;;;18.30;96453.00;;;;4994157;28;20229;-62
2023/09/06 08:16:00;;;;;;;0.93;0.93;;;;;18.50;96456.00;;;;4994387;28;20285;-62
2023/09/06 08:18:28;;;;;;;0.93;0.93;;;;;18.70;96458.00;;;;4993742;28;20198;-62
2023/09/06 08:20:55;;;;;;;0.67;0.67;;;;;18.80;96465.00;;;;4994466;28;20762;-62
2023/09/06 08:23:24;;;;;;;1.00;1.00;;;;;18.90;96463.00;;;;4994392;28;20194;-62
2023/09/06 08:25:51;;;;;;;2.00;1.33;;;;;19.00;96471.00;;;;4994155;28;20217;-62
2023/09/06 08:28:19;;;;;;;1.63;1.53;;;;;19.20;96456.00;;;;4993937;28;20198;-62
2023/09/06 08:30:47;;;;;;;1.40;1.27;;;;;19.40;96465.00;;;;4994759;28;20218;-62
2023/09/06 08:33:14;;;;;;;1.17;1.17;;;;;19.40;96456.00;;;;4994018;28;20206;-62
2023/09/06 08:35:42;;;;;;;1.07;1.07;;;;;19.40;96456.00;;;;4994188;28;20205;-60
2023/09/06 08:38:10;;;;;;;0.90;0.90;;;;;19.60;96463.00;;;;4993838;28;20194;-62
2023/09/06 08:40:38;;;;;;;1.00;1.00;;;;;19.70;96465.00;;;;4993841;28;20222;-62
2023/09/06 08:43:06;;;;;;;1.17;1.17;;;;;20.00;96461.00;;;;4993507;28;20198;-62
2023/09/06 08:45:34;;;;;;;1.40;1.33;;;;;20.10;96464.00;;;;4994274;28;20194;-62
2023/09/06 08:48:03;;;;;;;2.10;1.40;;;;;20.20;96462.00;;;;4992917;28;20681;-62
2023/09/06 08:50:32;;;;;;;1.07;1.07;;;;;20.30;96469.00;;;;4993529;28;20530;-61
2023/09/06 08:53:01;;;;;;;1.27;1.27;;;;;20.40;96463.00;;;;4992411;28;20566;-63
2023/09/06 08:55:29;;;;;;;1.47;1.37;;;;;20.60;96459.00;;;;4994260;28;20276;-62
2023/09/06 08:57:58;;;;;;;1.10;1.10;;;;;20.70;96471.00;;;;4993802;28;20207;-62
2023/09/06 09:00:25;;;;;;;1.03;1.03;;;;;21.00;96469.00;;;;4993420;28;20290;-61
2023/09/06 09:02:53;;;;;;;1.83;1.67;;;;;21.00;96474.00;;;;4975464;28;20217;-62
2023/09/06 09:05:22;;;;;;;1.08;1.08;;;;;21.20;96465.00;;;;4973967;28;20214;-62
2023/09/06 09:07:57;;;;;;;0.80;0.80;;;;;21.20;96466.00;;;;4973354;28;20230;-62
2023/09/06 09:10:26;;;;;;;1.58;1.48;;;;;21.10;96463.00;;;;4970501;28;20229;-63
2023/09/06 09:12:55;;;;;;;0.65;0.65;;;;;21.30;96465.00;;;;4972276;28;20261;-62
2023/09/06 09:15:25;;;;;;;2.20;2.10;;;;;21.50;96473.00;;;;4973606;28;20205;-63
2023/09/06 09:17:53;;;;;;;1.02;1.00;;;;;21.50;96467.00;;;;4973731;28;20195;-64
2023/09/06 09:20:21;;;;;;;3.83;1.90;;;;;21.70;96467.00;;;;4973587;28;20227;-62
2023/09/06 09:22:50;;;;;;;1.08;1.08;;;;;21.60;96466.00;;;;4973572;28;20215;-63
2023/09/06 09:25:23;;;;;;;1.25;1.15;;;;;21.80;96469.00;;;;4973813;28;20199;-62
2023/09/06 09:27:55;;;;;;;1.50;1.40;;;;;21.80;96460.00;;;;4973666;28;20871;-62
2023/09/06 09:30:26;;;;;;;1.40;1.30;;;;;22.00;96461.00;;;;4973507;28;20230;-62
2023/09/06 09:32:59;;;;;;;0.95;0.95;;;;;22.00;96461.00;;;;4973758;28;20639;-62
2023/09/06 09:35:27;;;;;;;1.92;1.63;;;;;22.00;96456.00;;;;4972823;28;20734;-62
2023/09/06 09:37:56;;;;;;;1.40;1.40;;;;;22.20;96463.00;;;;4973114;28;20222;-62
2023/09/06 09:40:32;;;;;;;10.73;1.63;;;;;22.30;96464.00;;;;4972963;28;20218;-62
2023/09/06 09:43:02;;;;;;;0.90;0.90;;;;;22.30;96455.00;;;;4972469;28;20222;-62
2023/09/06 09:45:40;;;;;;;1.33;1.23;;;;;22.50;96457.00;;;;4973656;28;20229;-62
2023/09/06 09:48:10;;;;;;;1.30;1.30;;;;;22.80;96454.00;;;;4971417;28;20225;-62
2023/09/06 09:50:41;;;;;;;1.50;1.35;;;;;22.90;96459.00;;;;4973702;28;20215;-62
2023/09/06 09:53:10;;;;;;;0.60;0.60;;;;;22.70;96453.00;;;;4972491;28;20199;-62
2023/09/06 09:55:46;;;;;;;0.93;0.93;;;;;22.80;96450.00;;;;4973698;28;20236;-61
2023/09/06 09:58:14;;;;;;;1.08;1.08;;;;;23.00;96451.00;;;;4968476;28;20183;-62
2023/09/06 10:00:43;;;;;;;0.93;0.93;;;;;23.10;96450.00;;;;4973350;28;20686;-62
2023/09/06 10:03:11;;;;;;;1.00;1.00;;;;;23.10;96454.00;;;;4972861;28;20203;-63
2023/09/06 10:05:40;;;;;;;1.27;1.20;;;;;23.20;96445.00;;;;4972168;28;20527;-62
2023/09/06 10:08:09;;;;;;;0.90;0.90;;;;;23.40;96450.00;;;;4971884;28;20291;-62
2023/09/06 10:10:39;;;;;;;0.82;0.82;;;;;23.50;96443.00;;;;4971986;28;20273;-62
2023/09/06 10:13:07;;;;;;;1.17;1.13;;;;;23.70;96449.00;;;;4972962;28;20195;-62
2023/09/06 10:15:36;;;;;;;0.95;0.95;;;;;23.70;96446.00;;;;4972920;28;20290;-62
2023/09/06 10:18:06;;;;;;;1.15;1.15;;;;;23.80;96447.00;;;;4972419;28;20740;-62
2023/09/06 10:20:34;;;;;;;4.57;1.25;;;;;23.90;96440.00;;;;4972973;28;20573;-63
2023/09/06 10:23:04;;;;;;;1.40;1.30;;;;;24.10;96436.00;;;;4971265;28;20249;-64
2023/09/06 10:25:32;;;;;;;1.05;0.95;;;;;24.40;96431.00;;;;4972563;28;20222;-63
2023/09/06 10:28:00;;;;;;;0.80;0.80;;;;;24.50;96443.00;;;;4970917;28;20735;-63
2023/09/06 10:30:43;;;;;;;1.63;1.52;;;;;24.70;96434.00;;;;4972600;28;20293;-61
2023/09/06 10:33:42;;;;;;;0.80;0.80;;;;;24.60;96431.00;;;;4971619;28;20203;-62
2023/09/06 10:36:12;;;;;;;0.80;0.80;;;;;24.80;96431.00;;;;4972583;28;20207;-63
2023/09/06 10:39:14;;;;;;;1.58;1.48;;;;;25.10;96426.00;;;;4971777;28;20199;-63
2023/09/06 10:42:17;;;;;;;1.40;1.35;;;;;25.10;96423.00;;;;4972640;28;20292;-62
2023/09/06 10:45:13;;;;;;;1.48;1.38;;;;;25.20;96419.00;;;;4972715;28;20285;-63
2023/09/06 10:47:42;;;;;;;0.93;0.93;;;;;25.40;96416.00;;;;4972499;28;20214;-61
2023/09/06 10:50:19;;;;;;;1.25;1.25;;;;;25.40;96423.00;;;;4972685;28;20219;-62
2023/09/06 10:52:53;;;;;;;1.05;1.05;;;;;25.20;96428.00;;;;4972704;28;20589;-63
2023/09/06 10:55:22;;;;;;;0.85;0.85;;;;;25.70;96422.00;;;;4972744;28;20662;-62
2023/09/06 10:57:56;;;;;;;1.15;1.15;;;;;25.70;96428.00;;;;4972125;28;20191;-63
2023/09/06 11:00:30;;;;;;;0.90;0.90;;;;;25.80;96424.00;;;;4972223;28;20301;-64
2023/09/06 11:03:19;;;;;;;1.08;1.08;;;;;26.00;96435.00;;;;4972092;28;20206;-64
2023/09/06 11:05:56;;;;;;;1.55;1.45;;;;;25.90;96425.00;;;;4968308;28;20199;-63
2023/09/06 11:08:32;;;;;;;1.67;1.33;;;;;26.00;96424.00;;;;4970723;28;20225;-63
2023/09/06 11:11:02;;;;;;;1.35;1.00;;;;;25.90;96420.00;;;;4970989;28;20230;-63
2023/09/06 11:13:32;;;;;;;1.20;1.20;;;;;26.10;96431.00;;;;4972672;28;20261;-63
2023/09/06 11:16:01;;;;;;;1.17;1.17;;;;;26.10;96427.00;;;;4971782;28;20191;-62
2023/09/06 11:18:28;;;;;;;2.08;1.52;;;;;26.20;96425.00;;;;4972580;28;20195;-62
2023/09/06 11:20:59;;;;;;;1.63;1.02;;;;;26.20;96419.00;;;;4971472;28;20708;-61
2023/09/06 11:23:27;;;;;;;1.35;1.30;;;;;26.60;96425.00;;;;4972053;28;20203;-61
2023/09/06 11:25:58;;;;;;;0.88;0.85;;;;;26.40;96421.00;;;;4972252;28;20206;-61
2023/09/06 11:28:28;;;;;;;1.67;1.30;;;;;26.70;96413.00;;;;4969016;28;20214;-61
2023/09/06 11:30:58;;;;;;;1.20;1.20;;;;;26.80;96413.00;;;;4972665;28;20809;-61
2023/09/06 11:33:31;;;;;;;1.67;1.30;;;;;27.10;96412.00;;;;4973363;28;20202;-61
2023/09/06 11:36:03;;;;;;;1.35;1.35;;;;;27.10;96408.00;;;;4975162;28;20199;-62
2023/09/06 11:38:34;;;;;;;1.30;1.30;;;;;27.20;96410.00;;;;4976819;28;20573;-62
2023/09/06 11:41:04;;;;;;;1.27;1.23;;;;;27.40;96404.00;;;;4976898;28;20227;-62
2023/09/06 11:43:33;;;;;;;1.05;1.05;;;;;27.70;96405.00;;;;4972505;28;20206;-62
2023/09/06 11:46:03;;;;;;;1.45;1.35;;;;;27.60;96402.00;;;;4973726;28;20212;-62
2023/09/06 11:48:34;;;;;;;2.33;2.05;;;;;27.70;96402.00;;;;4975332;28;20206;-62
2023/09/06 11:51:08;;;;;;;2.85;1.55;;;;;28.10;96405.00;;;;4975608;28;20219;-62
2023/09/06 11:53:40;;;;;;;1.75;1.55;;;;;28.00;96399.00;;;;4975378;28;20221;-61
2023/09/06 11:56:11;;;;;;;1.48;1.38;;;;;27.40;96406.00;;;;4974909;28;20211;-61
2023/09/06 11:58:45;;;;;;;1.17;1.17;;;;;27.90;96400.00;;;;4974893;28;20638;-61
2023/09/06 12:01:19;;;;;;;1.17;1.17;;;;;28.30;96404.00;;;;4974646;28;20222;-61
2023/09/06 12:03:48;;;;;;;1.42;1.33;;;;;28.10;96396.00;;;;4975113;28;20328;-61
2023/09/06 12:06:17;;;;;;;1.17;1.17;;;;;28.40;96404.00;;;;4975276;28;20203;-61
2023/09/06 12:08:45;;;;;;;0.85;0.85;;;;;28.30;96404.00;;;;4974397;28;20317;-61
2023/09/06 12:11:18;;;;;;;1.52;1.20;;;;;28.20;96405.00;;;;4975064;28;20531;-62
2023/09/06 12:13:47;;;;;;;0.82;0.82;;;;;28.50;96401.00;;;;4975193;28;20270;-62
2023/09/06 12:16:15;;;;;;;1.08;1.08;;;;;28.00;96401.00;;;;4974449;28;20214;-62
2023/09/06 12:18:43;;;;;;;1.08;1.08;;;;;28.50;96395.00;;;;4974631;28;20210;-62
2023/09/06 12:21:10;;;;;;;1.20;1.20;;;;;28.40;96401.00;;;;4974820;28;20230;-62
2023/09/06 12:23:39;;;;;;;1.42;1.33;;;;;28.20;96400.00;;;;4975251;28;20234;-62
2023/09/06 12:26:07;;;;;;;1.55;1.45;;;;;28.70;96393.00;;;;4974338;28;20257;-62
2023/09/06 12:28:34;;;;;;;1.00;1.00;;;;;28.50;96390.00;;;;4974792;28;20678;-62
2023/09/06 12:31:03;;;;;;;2.17;1.60;;;;;28.50;96389.00;;;;4974520;28;20580;-62
2023/09/06 12:33:31;;;;;;;1.65;1.55;;;;;28.80;96389.00;;;;4974654;28;20253;-62